Time;durP1;ratioP1;P1;durP2;ratioP2;P2;SDS_P1;SDS_P2;PMS_P1;PMS_P2;Temp;Humidity;BMP_temperature;BMP_pressure;BME280_temperature;BME280_humidity;BME280_pressure;Samples;Min_cycle;Max_cycle;Signal;HPM_P1;HPM_P2
2022/04/27 00:00:07;;;;;;;;;;;13.90;90.70;;;;;;5035389;28;19933;-66
2022/04/27 00:02:39;;;;;;;;;;;13.90;90.70;;;;;;5032079;28;19928;-65
2022/04/27 00:05:06;;;;;;;;;;;13.90;90.50;;;;;;5038830;28;19968;-65
2022/04/27 00:07:33;;;;;;;;;;;13.90;90.30;;;;;;5028920;28;19933;-65
2022/04/27 00:10:00;;;;;;;;;;;13.90;90.40;;;;;;5032366;28;20269;-65
2022/04/27 00:12:28;;;;;;;;;;;13.90;90.00;;;;;;5036730;28;20051;-65
2022/04/27 00:14:54;;;;;;;;;;;13.80;90.40;;;;;;5039129;28;19936;-65
2022/04/27 00:17:21;;;;;;;;;;;13.90;90.30;;;;;;5026975;28;20385;-65
2022/04/27 00:19:48;;;;;;;;;;;13.90;90.80;;;;;;5035907;28;20594;-65
2022/04/27 00:22:15;;;;;;;;;;;13.90;90.70;;;;;;5033133;28;19940;-65
2022/04/27 00:24:43;;;;;;;;;;;13.90;91.50;;;;;;5032715;28;20930;-65
2022/04/27 00:27:09;;;;;;;;;;;13.80;92.40;;;;;;5018556;28;19944;-66
2022/04/27 00:29:37;;;;;;;;;;;13.80;92.60;;;;;;5038040;28;20413;-65
2022/04/27 00:32:04;;;;;;;;;;;13.80;92.90;;;;;;5027631;28;19929;-65
2022/04/27 00:34:31;;;;;;;;;;;13.70;93.50;;;;;;5017479;28;19925;-65
2022/04/27 00:36:58;;;;;;;;;;;13.70;93.40;;;;;;5030744;28;21287;-65
2022/04/27 00:39:26;;;;;;;;;;;13.60;93.40;;;;;;5035212;28;20281;-65
2022/04/27 00:41:59;;;;;;;;;;;13.60;92.90;;;;;;5033572;28;20411;-65
2022/04/27 00:44:27;;;;;;;;;;;13.60;92.90;;;;;;5033589;28;19924;-66
2022/04/27 00:46:54;;;;;;;;;;;13.60;92.60;;;;;;5036076;28;19939;-65
2022/04/27 00:49:21;;;;;;;;;;;13.50;92.30;;;;;;5034598;28;19929;-65
2022/04/27 00:51:48;;;;;;;;;;;13.50;92.20;;;;;;5030690;28;20833;-64
2022/04/27 00:54:16;;;;;;;;;;;13.50;92.10;;;;;;5033204;28;19933;-65
2022/04/27 00:56:43;;;;;;;;;;;13.50;92.70;;;;;;5037328;28;20366;-65
2022/04/27 00:59:10;;;;;;;;;;;13.50;92.40;;;;;;5030299;28;20292;-66
2022/04/27 01:01:37;;;;;;;;;;;13.50;92.60;;;;;;5030014;28;19933;-65
2022/04/27 01:04:05;;;;;;;;;;;13.40;92.10;;;;;;5038442;28;19935;-66
2022/04/27 01:06:32;;;;;;;;;;;13.40;92.10;;;;;;5032120;28;19932;-65
2022/04/27 01:08:59;;;;;;;;;;;13.40;92.30;;;;;;5029016;28;19933;-65
2022/04/27 01:11:27;;;;;;;;;;;13.50;91.40;;;;;;5018524;28;19933;-66
2022/04/27 01:13:56;;;;;;;;;;;13.50;91.50;;;;;;5048350;28;20264;-65
2022/04/27 01:16:23;;;;;;;;;;;13.50;91.90;;;;;;5035265;28;20024;-65
2022/04/27 01:18:50;;;;;;;;;;;13.60;92.30;;;;;;5031815;28;20316;-65
2022/04/27 01:21:17;;;;;;;;;;;13.50;92.50;;;;;;5030928;28;19933;-65
2022/04/27 01:23:49;;;;;;;;;;;13.60;92.80;;;;;;5037340;28;19925;-66
2022/04/27 01:26:16;;;;;;;;;;;13.60;93.10;;;;;;5034112;28;19933;-65
2022/04/27 01:28:44;;;;;;;;;;;13.50;92.00;;;;;;5031928;28;19929;-65
2022/04/27 01:31:11;;;;;;;;;;;13.60;92.40;;;;;;5035053;28;19925;-64
2022/04/27 01:33:39;;;;;;;;;;;13.40;91.10;;;;;;5030326;28;19933;-65
2022/04/27 01:36:07;;;;;;;;;;;13.50;91.40;;;;;;5032991;28;19929;-65
2022/04/27 01:38:35;;;;;;;;;;;13.50;91.60;;;;;;5035315;28;19932;-65
2022/04/27 01:41:05;;;;;;;;;;;13.50;91.50;;;;;;5031425;28;19929;-64
2022/04/27 01:43:33;;;;;;;;;;;13.40;91.80;;;;;;5046358;28;19944;-65
2022/04/27 01:46:01;;;;;;;;;;;13.40;92.00;;;;;;5036562;28;19929;-65
2022/04/27 01:48:28;;;;;;;;;;;13.30;92.20;;;;;;5018452;28;19925;-65
2022/04/27 01:50:55;;;;;;;;;;;13.30;92.40;;;;;;5032815;28;19933;-65
2022/04/27 01:56:10;;;;;;;;;;;13.30;92.60;;;;;;5032036;28;19933;-66
2022/04/27 01:58:44;;;;;;;;;;;13.30;92.90;;;;;;5034428;28;19933;-65
2022/04/27 02:01:12;;;;;;;;;;;13.30;93.10;;;;;;5030292;28;19925;-65
2022/04/27 02:03:40;;;;;;;;;;;13.20;93.10;;;;;;5036712;28;19933;-66
2022/04/27 02:06:13;;;;;;;;;;;13.20;93.20;;;;;;5030204;28;19954;-65
2022/04/27 02:08:40;;;;;;;;;;;13.30;93.20;;;;;;5036569;28;19936;-65
2022/04/27 02:11:08;;;;;;;;;;;13.30;93.60;;;;;;5034723;28;19929;-65
2022/04/27 02:13:40;;;;;;;;;;;13.30;93.30;;;;;;5035370;28;20387;-65
2022/04/27 02:16:07;;;;;;;;;;;13.30;93.20;;;;;;5019213;28;19928;-65
2022/04/27 02:18:38;;;;;;;;;;;13.30;93.20;;;;;;5030689;28;19933;-65
2022/04/27 02:21:06;;;;;;;;;;;13.20;93.30;;;;;;5034096;28;19941;-65
2022/04/27 02:23:33;;;;;;;;;;;13.20;93.40;;;;;;5035437;28;19936;-65
2022/04/27 02:26:02;;;;;;;;;;;13.20;93.60;;;;;;5032808;28;20012;-65
2022/04/27 02:28:29;;;;;;;;;;;13.20;93.60;;;;;;5028580;28;19936;-65
2022/04/27 02:30:56;;;;;;;;;;;13.20;93.50;;;;;;5030491;28;19931;-65
2022/04/27 02:33:23;;;;;;;;;;;13.30;93.40;;;;;;5043407;28;19933;-65
2022/04/27 02:35:50;;;;;;;;;;;13.30;93.40;;;;;;5032440;28;20334;-65
2022/04/27 02:38:18;;;;;;;;;;;13.30;93.40;;;;;;5017670;28;20396;-65
2022/04/27 02:40:48;;;;;;;;;;;13.20;93.20;;;;;;5035329;28;19933;-65
2022/04/27 02:43:15;;;;;;;;;;;13.10;93.30;;;;;;5032748;28;20019;-65
2022/04/27 02:45:43;;;;;;;;;;;13.20;93.20;;;;;;5036766;28;19960;-65
2022/04/27 02:48:10;;;;;;;;;;;13.20;93.30;;;;;;5034536;28;19979;-65
2022/04/27 02:53:22;;;;;;;;;;;13.10;93.20;;;;;;5045434;28;19925;-65
2022/04/27 02:55:51;;;;;;;;;;;13.10;93.40;;;;;;5018749;28;20324;-65
2022/04/27 02:58:19;;;;;;;;;;;13.10;93.30;;;;;;5023352;28;19928;-65
2022/04/27 03:00:47;;;;;;;;;;;13.10;93.40;;;;;;5036614;28;20399;-65
2022/04/27 03:03:16;;;;;;;;;;;13.10;93.70;;;;;;5038802;28;19941;-65
2022/04/27 03:05:44;;;;;;;;;;;13.10;93.80;;;;;;5033339;28;19925;-65
2022/04/27 03:08:11;;;;;;;;;;;13.10;93.70;;;;;;5035400;28;19933;-66
2022/04/27 03:10:47;;;;;;;;;;;13.10;93.80;;;;;;5040579;28;19963;-65
2022/04/27 03:13:14;;;;;;;;;;;13.10;94.00;;;;;;5022487;28;19974;-65
2022/04/27 03:15:42;;;;;;;;;;;12.90;94.40;;;;;;5048487;28;19937;-64
2022/04/27 03:18:19;;;;;;;;;;;12.90;94.70;;;;;;5020596;28;19933;-65
2022/04/27 03:20:49;;;;;;;;;;;12.90;95.00;;;;;;5049721;28;19932;-65
2022/04/27 03:23:16;;;;;;;;;;;12.90;95.00;;;;;;5033967;28;20346;-65
2022/04/27 03:25:48;;;;;;;;;;;12.80;94.90;;;;;;5038866;28;20027;-65
2022/04/27 03:28:15;;;;;;;;;;;12.80;95.00;;;;;;5033115;28;20619;-65
2022/04/27 03:30:43;;;;;;;;;;;12.80;95.10;;;;;;5046345;28;20734;-65
2022/04/27 03:33:25;;;;;;;;;;;12.80;94.80;;;;;;5039470;28;19933;-65
2022/04/27 03:35:52;;;;;;;;;;;12.70;95.00;;;;;;5047356;28;19929;-66
2022/04/27 03:38:19;;;;;;;;;;;12.80;94.90;;;;;;5038742;28;20022;-65
2022/04/27 03:40:47;;;;;;;;;;;12.80;94.60;;;;;;5033002;28;20048;-64
2022/04/27 03:43:15;;;;;;;;;;;12.70;94.60;;;;;;5036982;28;20407;-64
2022/04/27 03:45:43;;;;;;;;;;;12.80;94.60;;;;;;5037064;28;20008;-64
2022/04/27 03:48:11;;;;;;;;;;;12.80;94.50;;;;;;5032690;28;19936;-65
2022/04/27 03:50:38;;;;;;;;;;;12.70;94.50;;;;;;5037481;28;20267;-65
2022/04/27 03:53:05;;;;;;;;;;;12.80;94.60;;;;;;5034026;28;19939;-65
2022/04/27 03:55:36;;;;;;;;;;;12.70;94.50;;;;;;5031004;28;19928;-65
2022/04/27 03:58:04;;;;;;;;;;;12.80;94.50;;;;;;5048308;28;22387;-65
2022/04/27 04:00:33;;;;;;;;;;;12.80;94.20;;;;;;5046416;28;20408;-66
2022/04/27 04:03:20;;;;;;;;;;;12.70;94.50;;;;;;5030330;28;19964;-65
2022/04/27 04:05:52;;;;;;;;;;;12.70;94.30;;;;;;5031569;28;19940;-65
2022/04/27 04:08:20;;;;;;;;;;;12.70;94.50;;;;;;5037947;28;20022;-65
2022/04/27 04:10:49;;;;;;;;;;;12.60;94.40;;;;;;5052014;28;20371;-66
2022/04/27 04:13:17;;;;;;;;;;;12.60;94.40;;;;;;5048601;28;19968;-64
2022/04/27 04:15:50;;;;;;;;;;;12.60;94.50;;;;;;5034201;28;19951;-65
2022/04/27 04:18:36;;;;;;;;;;;12.60;94.30;;;;;;5034332;28;19948;-64
2022/04/27 04:21:17;;;;;;;;;;;12.60;94.30;;;;;;5020592;28;19933;-65
2022/04/27 04:24:02;;;;;;;;;;;12.60;94.40;;;;;;5034326;28;19929;-66
2022/04/27 04:29:18;;;;;;;;;;;12.50;94.50;;;;;;5046626;28;20598;-65
2022/04/27 04:31:47;;;;;;;;;;;12.50;94.70;;;;;;5033503;28;19948;-65
2022/04/27 04:34:34;;;;;;;;;;;12.50;94.40;;;;;;5033251;28;20031;-65
2022/04/27 04:37:02;;;;;;;;;;;12.50;94.40;;;;;;5030332;28;19929;-64
2022/04/27 04:39:30;;;;;;;;;;;12.50;94.50;;;;;;5017049;28;19925;-65
2022/04/27 04:41:58;;;;;;;;;;;12.50;94.70;;;;;;5046120;28;20023;-65
2022/04/27 04:44:26;;;;;;;;;;;12.50;94.50;;;;;;5022594;28;19929;-66
2022/04/27 04:47:22;;;;;;;;;;;12.50;94.50;;;;;;5033077;28;19929;-64
2022/04/27 04:49:55;;;;;;;;;;;12.50;94.40;;;;;;5033780;28;20011;-65
2022/04/27 04:52:41;;;;;;;;;;;12.50;94.40;;;;;;5037046;28;19948;-65
2022/04/27 04:55:33;;;;;;;;;;;12.40;94.10;;;;;;5036667;28;19924;-66
2022/04/27 04:58:22;;;;;;;;;;;12.50;94.20;;;;;;5029899;28;20006;-65
2022/04/27 05:01:15;;;;;;;;;;;12.50;94.40;;;;;;5012216;28;19933;-65
2022/04/27 05:03:54;;;;;;;;;;;12.60;94.20;;;;;;4987886;28;19991;-65
2022/04/27 05:06:30;;;;;;;;;;;12.60;93.90;;;;;;4993111;28;21315;-64
2022/04/27 05:09:16;;;;;;;;;;;12.60;93.70;;;;;;4985004;28;20027;-65
2022/04/27 05:12:19;;;;;;;;;;;12.60;93.90;;;;;;4977592;28;19940;-65
2022/04/27 05:15:06;;;;;;;;;;;12.70;94.00;;;;;;4989058;28;20105;-65
2022/04/27 05:17:43;;;;;;;;;;;12.70;93.70;;;;;;4987670;28;19933;-64
2022/04/27 05:20:33;;;;;;;;;;;12.70;93.90;;;;;;4986898;28;19968;-66
2022/04/27 05:23:13;;;;;;;;;;;12.60;93.90;;;;;;4974707;28;19933;-64
2022/04/27 05:25:59;;;;;;;;;;;12.70;93.60;;;;;;4988599;28;19986;-67
2022/04/27 05:31:58;;;;;;;;;;;12.70;93.80;;;;;;4974279;28;19933;-66
2022/04/27 05:34:43;;;;;;;;;;;12.80;93.40;;;;;;4985299;28;20717;-66
2022/04/27 05:37:24;;;;;;;;;;;12.80;93.40;;;;;;4986580;28;19936;-67
2022/04/27 05:40:14;;;;;;;;;;;13.00;93.20;;;;;;4987958;28;19987;-66
2022/04/27 05:42:54;;;;;;;;;;;13.10;93.10;;;;;;4986207;28;20055;-66
2022/04/27 05:45:52;;;;;;;;;;;13.20;92.70;;;;;;4996340;28;19936;-66
2022/04/27 05:48:28;;;;;;;;;;;13.10;92.70;;;;;;4972319;28;19984;-67
2022/04/27 05:51:14;;;;;;;;;;;13.20;92.90;;;;;;4986888;28;20064;-66
2022/04/27 05:53:55;;;;;;;;;;;13.40;92.00;;;;;;5004569;28;19933;-66
2022/04/27 05:56:52;;;;;;;;;;;13.40;91.90;;;;;;5001522;28;20001;-66
2022/04/27 05:59:43;;;;;;;;;;;13.30;92.10;;;;;;4990429;28;19933;-67
2022/04/27 06:02:33;;;;;;;;;;;13.40;91.80;;;;;;4986129;28;19933;-67
2022/04/27 06:05:01;;;;;;;;;;;13.50;92.30;;;;;;4985034;28;19940;-66
2022/04/27 06:07:28;;;;;;;;;;;13.40;91.30;;;;;;4985516;28;19960;-66
2022/04/27 06:09:58;;;;;;;;;;;13.40;91.50;;;;;;4986233;28;22487;-66
2022/04/27 06:12:36;;;;;;;;;;;13.30;91.50;;;;;;5003154;28;19940;-67
2022/04/27 06:15:21;;;;;;;;;;;13.40;91.80;;;;;;4982790;28;20006;-67
2022/04/27 06:17:55;;;;;;;;;;;13.50;92.30;;;;;;4979198;28;19976;-67
2022/04/27 06:20:22;;;;;;;;;;;13.60;91.30;;;;;;5002086;28;20074;-67
2022/04/27 06:22:49;;;;;;;;;;;13.60;91.30;;;;;;4986593;28;19933;-67
2022/04/27 06:25:18;;;;;;;;;;;13.60;91.70;;;;;;4991994;28;19937;-66
2022/04/27 06:28:03;;;;;;;;;;;13.60;90.90;;;;;;4974950;28;20992;-67
2022/04/27 06:30:32;;;;;;;;;;;13.50;91.10;;;;;;4985870;28;22378;-66
2022/04/27 06:32:59;;;;;;;;;;;13.60;90.80;;;;;;4989295;28;19933;-67
2022/04/27 06:35:26;;;;;;;;;;;13.70;91.20;;;;;;4987144;28;19940;-68
2022/04/27 06:37:59;;;;;;;;;;;13.70;90.70;;;;;;4973113;28;20620;-67
2022/04/27 06:40:44;;;;;;;;;;;13.90;91.10;;;;;;4978333;28;19933;-64
2022/04/27 06:43:12;;;;;;;;;;;14.00;90.50;;;;;;4987535;28;21808;-67
2022/04/27 06:45:48;;;;;;;;;;;13.80;90.50;;;;;;4988340;28;19974;-67
2022/04/27 06:48:34;;;;;;;;;;;13.80;91.10;;;;;;4986726;28;19940;-67
2022/04/27 06:51:39;;;;;;;;;;;13.90;90.00;;;;;;4979403;28;19932;-66
2022/04/27 06:54:06;;;;;;;;;;;13.90;90.50;;;;;;4979491;28;19983;-67
2022/04/27 06:56:36;;;;;;;;;;;13.80;90.30;;;;;;4978837;28;19940;-67
2022/04/27 06:59:21;;;;;;;;;;;13.90;90.20;;;;;;4982785;28;19967;-67
2022/04/27 07:01:55;;;;;;;;;;;14.00;90.60;;;;;;4987190;28;22303;-67
2022/04/27 07:04:22;;;;;;;;;;;14.10;89.80;;;;;;4981281;28;19950;-66
2022/04/27 07:06:49;;;;;;;;;;;14.20;88.90;;;;;;4985426;28;20104;-67
2022/04/27 07:09:16;;;;;;;;;;;14.20;88.10;;;;;;4983272;28;19932;-67
2022/04/27 07:11:44;;;;;;;;;;;14.30;87.60;;;;;;4986083;28;19933;-66
2022/04/27 07:14:15;;;;;;;;;;;14.40;87.10;;;;;;4984519;28;22267;-66
2022/04/27 07:16:43;;;;;;;;;;;14.50;86.40;;;;;;4970606;28;20001;-65
2022/04/27 07:19:10;;;;;;;;;;;14.60;85.90;;;;;;4988745;28;20422;-65
2022/04/27 07:21:38;;;;;;;;;;;14.90;83.90;;;;;;4989828;28;22325;-64
2022/04/27 07:24:06;;;;;;;;;;;15.00;83.10;;;;;;4993047;28;19933;-66
2022/04/27 07:26:33;;;;;;;;;;;15.00;83.40;;;;;;4992100;28;19932;-67
2022/04/27 07:29:00;;;;;;;;;;;15.30;83.30;;;;;;4991875;28;19940;-67
2022/04/27 07:31:27;;;;;;;;;;;15.70;83.30;;;;;;4973027;28;20563;-67
2022/04/27 07:33:54;;;;;;;;;;;15.70;82.70;;;;;;4988566;28;21216;-67
2022/04/27 07:36:21;;;;;;;;;;;16.20;83.10;;;;;;4990459;28;20908;-66
2022/04/27 07:38:54;;;;;;;;;;;16.20;80.20;;;;;;5005162;28;19979;-66
2022/04/27 07:41:21;;;;;;;;;;;16.10;78.50;;;;;;4987584;28;20047;-67
2022/04/27 07:43:48;;;;;;;;;;;16.00;79.70;;;;;;4991132;28;19933;-65
2022/04/27 07:46:15;;;;;;;;;;;15.90;79.80;;;;;;4987544;28;19933;-66
2022/04/27 07:48:42;;;;;;;;;;;15.80;79.20;;;;;;4988232;28;19936;-66
2022/04/27 07:51:09;;;;;;;;;;;15.80;79.10;;;;;;4987530;28;19932;-67
2022/04/27 07:53:36;;;;;;;;;;;15.90;81.40;;;;;;4989950;28;19975;-67
2022/04/27 07:56:05;;;;;;;;;;;16.10;78.10;;;;;;4997533;28;19992;-66
2022/04/27 07:58:32;;;;;;;;;;;16.50;78.30;;;;;;4989870;28;19940;-66
2022/04/27 08:01:00;;;;;;;;;;;16.30;77.10;;;;;;4989598;28;22465;-66
2022/04/27 08:03:27;;;;;;;;;;;16.50;76.40;;;;;;4990135;28;19940;-66
2022/04/27 08:05:55;;;;;;;;;;;16.60;76.20;;;;;;4989883;28;19937;-67
2022/04/27 08:08:22;;;;;;;;;;;17.10;80.00;;;;;;4990007;28;19940;-66
2022/04/27 08:10:54;;;;;;;;;;;16.90;76.70;;;;;;4987312;28;19933;-66
2022/04/27 08:13:20;;;;;;;;;;;16.60;78.10;;;;;;4988445;28;20711;-67
2022/04/27 08:15:47;;;;;;;;;;;16.10;78.00;;;;;;4989642;28;19933;-66
2022/04/27 08:18:15;;;;;;;;;;;16.40;78.70;;;;;;4990832;28;19941;-66
2022/04/27 08:23:29;;;;;;;;;;;16.60;76.40;;;;;;4987899;28;19940;-66
2022/04/27 08:25:57;;;;;;;;;;;16.80;77.10;;;;;;4988474;28;19941;-66
2022/04/27 08:28:24;;;;;;;;;;;17.20;75.70;;;;;;4987977;28;19932;-67
2022/04/27 08:30:51;;;;;;;;;;;16.90;76.60;;;;;;4990887;28;20565;-66
2022/04/27 08:33:19;;;;;;;;;;;17.20;75.50;;;;;;4990301;28;20654;-66
2022/04/27 08:35:47;;;;;;;;;;;17.50;77.80;;;;;;4989064;28;19972;-65
2022/04/27 08:38:14;;;;;;;;;;;17.50;75.50;;;;;;4986430;28;20692;-67
2022/04/27 08:40:42;;;;;;;;;;;17.20;77.00;;;;;;5003056;28;19933;-67
2022/04/27 08:43:12;;;;;;;;;;;16.90;76.80;;;;;;5004103;28;20355;-67
2022/04/27 08:45:42;;;;;;;;;;;16.90;78.40;;;;;;5004352;28;19932;-66
2022/04/27 08:48:10;;;;;;;;;;;17.00;75.60;;;;;;4985634;28;22368;-67
2022/04/27 08:50:37;;;;;;;;;;;17.00;74.30;;;;;;4994502;28;19940;-66
2022/04/27 08:53:05;;;;;;;;;;;17.40;76.20;;;;;;4988982;28;20776;-67
2022/04/27 08:55:32;;;;;;;;;;;17.70;73.90;;;;;;4992269;28;19940;-67
2022/04/27 08:58:08;;;;;;;;;;;17.70;75.30;;;;;;4986242;28;19933;-65
2022/04/27 09:00:56;;;;;;;;;;;17.90;73.80;;;;;;4992577;28;20022;-66
2022/04/27 09:03:24;;;;;;;;;;;17.90;73.00;;;;;;4987820;28;19963;-66
2022/04/27 09:06:00;;;;;;;;;;;18.10;73.40;;;;;;4989644;28;19980;-66
2022/04/27 09:08:46;;;;;;;;;;;18.40;72.00;;;;;;4987186;28;19933;-67
2022/04/27 09:11:14;;;;;;;;;;;18.50;71.00;;;;;;4984979;28;19933;-68
2022/04/27 09:14:08;;;;;;;;;;;18.40;74.80;;;;;;4966859;28;19971;-66
2022/04/27 09:22:11;;;;;;;;;;;17.90;73.50;;;;;;4993676;28;19933;-66
2022/04/27 09:24:55;;;;;;;;;;;17.90;73.20;;;;;;4986695;28;19932;-66
2022/04/27 09:27:23;;;;;;;;;;;17.70;73.70;;;;;;4989579;28;19933;-67
2022/04/27 09:30:00;;;;;;;;;;;17.80;75.40;;;;;;5001930;28;20673;-67
2022/04/27 09:32:28;;;;;;;;;;;17.60;72.90;;;;;;4989409;28;19933;-67
2022/04/27 09:34:55;;;;;;;;;;;17.50;74.30;;;;;;4988669;28;22371;-65
2022/04/27 09:37:24;;;;;;;;;;;17.40;73.40;;;;;;4986203;28;19933;-66
2022/04/27 09:40:04;;;;;;;;;;;17.30;75.50;;;;;;4986860;28;19933;-66
2022/04/27 09:42:43;;;;;;;;;;;17.40;73.90;;;;;;4988108;28;20530;-67
2022/04/27 09:45:22;;;;;;;;;;;17.60;76.00;;;;;;4987213;28;19940;-67
2022/04/27 09:47:49;;;;;;;;;;;17.30;73.30;;;;;;4985786;28;19940;-67
2022/04/27 09:50:16;;;;;;;;;;;17.30;75.70;;;;;;4993350;28;20483;-66
2022/04/27 09:52:44;;;;;;;;;;;17.40;74.50;;;;;;4966586;28;19975;-66
2022/04/27 09:55:11;;;;;;;;;;;17.50;76.10;;;;;;4981916;28;19939;-66
2022/04/27 09:57:42;;;;;;;;;;;17.50;74.90;;;;;;4984400;28;20334;-67
2022/04/27 10:00:12;;;;;;;;;;;17.60;75.70;;;;;;4986719;28;19939;-66
2022/04/27 10:02:43;;;;;;;;;;;17.50;73.20;;;;;;4989049;28;19940;-67
2022/04/27 10:05:10;;;;;;;;;;;17.40;73.30;;;;;;4985543;28;19932;-67
2022/04/27 10:07:37;;;;;;;;;;;17.40;74.40;;;;;;4988916;28;19940;-67
2022/04/27 10:10:04;;;;;;;;;;;17.50;74.50;;;;;;4989937;28;19932;-66
2022/04/27 10:12:34;;;;;;;;;;;17.50;73.00;;;;;;4990889;28;19940;-67
2022/04/27 10:15:01;;;;;;;;;;;17.40;73.40;;;;;;4991669;28;19989;-67
2022/04/27 10:17:28;;;;;;;;;;;17.40;73.00;;;;;;4990838;28;19933;-67
2022/04/27 10:19:56;;;;;;;;;;;17.30;73.60;;;;;;4997513;28;20002;-67
2022/04/27 10:22:27;;;;;;;;;;;17.30;74.80;;;;;;4980528;28;20700;-67
2022/04/27 10:24:55;;;;;;;;;;;17.40;75.00;;;;;;4993376;28;19943;-67
2022/04/27 10:27:34;;;;;;;;;;;17.00;73.80;;;;;;4989828;28;19939;-67
2022/04/27 10:30:02;;;;;;;;;;;17.00;75.30;;;;;;4988308;28;19932;-67
2022/04/27 10:32:37;;;;;;;;;;;16.90;78.00;;;;;;4992467;28;19999;-67
2022/04/27 10:35:14;;;;;;;;;;;16.90;75.80;;;;;;5005481;28;22481;-67
2022/04/27 10:37:52;;;;;;;;;;;16.80;77.80;;;;;;4991367;28;19933;-67
2022/04/27 10:40:25;;;;;;;;;;;16.80;76.50;;;;;;4990729;28;20010;-66
2022/04/27 10:42:52;;;;;;;;;;;16.60;77.00;;;;;;4994272;28;19933;-67
2022/04/27 10:45:23;;;;;;;;;;;16.70;76.40;;;;;;5008752;28;20414;-67
2022/04/27 10:47:50;;;;;;;;;;;16.50;76.20;;;;;;4974799;28;19933;-68
2022/04/27 10:50:18;;;;;;;;;;;16.60;77.30;;;;;;4990293;28;19940;-67
2022/04/27 10:52:51;;;;;;;;;;;16.60;77.80;;;;;;4987501;28;19981;-67
2022/04/27 10:55:33;;;;;;;;;;;16.60;77.40;;;;;;4991210;28;19933;-67
2022/04/27 10:58:24;;;;;;;;;;;16.60;78.10;;;;;;4988451;28;20044;-67
2022/04/27 11:00:57;;;;;;;;;;;16.60;79.00;;;;;;5001568;28;19933;-66
2022/04/27 11:03:29;;;;;;;;;;;16.60;78.10;;;;;;4989710;28;19995;-66
2022/04/27 11:05:56;;;;;;;;;;;16.60;77.70;;;;;;4992241;28;20540;-67
2022/04/27 11:08:32;;;;;;;;;;;16.60;78.30;;;;;;4988756;28;19932;-67
2022/04/27 11:11:05;;;;;;;;;;;16.70;79.90;;;;;;4997124;28;19933;-67
2022/04/27 11:13:34;;;;;;;;;;;16.70;78.60;;;;;;5004217;28;20027;-66
2022/04/27 11:16:07;;;;;;;;;;;16.70;77.80;;;;;;4988253;28;19932;-66
2022/04/27 11:18:50;;;;;;;;;;;16.60;79.40;;;;;;4990793;28;19933;-67
2022/04/27 11:21:17;;;;;;;;;;;16.50;79.60;;;;;;4991323;28;19932;-68
2022/04/27 11:23:44;;;;;;;;;;;16.50;80.30;;;;;;4992151;28;19933;-66
2022/04/27 11:26:13;;;;;;;;;;;16.50;79.80;;;;;;4986030;28;19940;-67
2022/04/27 11:28:46;;;;;;;;;;;16.50;79.60;;;;;;4988950;28;19940;-67
2022/04/27 11:31:14;;;;;;;;;;;16.50;80.00;;;;;;4988240;28;19940;-66
2022/04/27 11:33:42;;;;;;;;;;;16.30;79.60;;;;;;4997243;28;19933;-67
2022/04/27 11:36:25;;;;;;;;;;;16.30;80.30;;;;;;4990594;28;22386;-67
2022/04/27 11:38:53;;;;;;;;;;;16.30;81.00;;;;;;4989776;28;19944;-67
2022/04/27 11:41:23;;;;;;;;;;;16.30;80.90;;;;;;4990726;28;19933;-66
2022/04/27 11:43:51;;;;;;;;;;;16.30;82.10;;;;;;5003204;28;19933;-66
2022/04/27 11:46:18;;;;;;;;;;;16.10;83.60;;;;;;4989769;28;19940;-66
2022/04/27 11:48:49;;;;;;;;;;;16.10;83.30;;;;;;4990336;28;19936;-66
2022/04/27 11:51:16;;;;;;;;;;;16.10;83.10;;;;;;4992183;28;19969;-66
2022/04/27 11:53:49;;;;;;;;;;;16.10;84.00;;;;;;4996011;28;19934;-66
2022/04/27 11:56:17;;;;;;;;;;;16.00;83.90;;;;;;4986050;28;19955;-66
2022/04/27 11:58:45;;;;;;;;;;;16.00;84.10;;;;;;5005082;28;19933;-67
2022/04/27 12:01:20;;;;;;;;;;;16.00;84.40;;;;;;4987981;28;20096;-67
2022/04/27 12:03:49;;;;;;;;;;;16.00;84.70;;;;;;4983798;28;19940;-66
2022/04/27 12:06:21;;;;;;;;;;;15.90;84.60;;;;;;4983975;28;19944;-66
2022/04/27 12:08:48;;;;;;;;;;;15.90;84.50;;;;;;4990287;28;20059;-67
2022/04/27 12:11:24;;;;;;;;;;;15.90;84.90;;;;;;4989165;28;20007;-66
2022/04/27 12:13:52;;;;;;;;;;;15.90;85.00;;;;;;4987987;28;22803;-67
2022/04/27 12:16:19;;;;;;;;;;;15.90;85.30;;;;;;4978188;28;19954;-66
2022/04/27 12:18:54;;;;;;;;;;;15.90;85.80;;;;;;4987704;28;20319;-67
2022/04/27 12:21:24;;;;;;;;;;;15.90;86.50;;;;;;4987290;28;22345;-67
2022/04/27 12:23:56;;;;;;;;;;;15.90;85.30;;;;;;5002703;28;20054;-66
2022/04/27 12:26:24;;;;;;;;;;;15.90;85.30;;;;;;4985129;28;20074;-66
2022/04/27 12:28:51;;;;;;;;;;;15.90;85.60;;;;;;4989628;28;19932;-68
2022/04/27 12:31:20;;;;;;;;;;;15.80;85.70;;;;;;4991301;28;19937;-67
2022/04/27 12:33:48;;;;;;;;;;;15.80;86.10;;;;;;4995009;28;19940;-67
2022/04/27 12:39:23;;;;;;;;;;;15.80;86.50;;;;;;4997587;28;19933;-68
2022/04/27 12:41:52;;;;;;;;;;;15.80;85.70;;;;;;4996891;28;22231;-68
2022/04/27 12:44:28;;;;;;;;;;;15.80;85.80;;;;;;4989501;28;20026;-68
2022/04/27 12:46:56;;;;;;;;;;;15.80;87.80;;;;;;4986170;28;19940;-67
2022/04/27 12:49:24;;;;;;;;;;;15.70;87.10;;;;;;4988184;28;19933;-67
2022/04/27 12:51:51;;;;;;;;;;;15.60;87.10;;;;;;4996751;28;19933;-68
2022/04/27 12:54:18;;;;;;;;;;;15.60;87.50;;;;;;4992167;28;19933;-67
2022/04/27 12:56:45;;;;;;;;;;;15.60;88.20;;;;;;4988700;28;19959;-67
2022/04/27 12:59:16;;;;;;;;;;;15.60;88.20;;;;;;5003922;28;19940;-68
2022/04/27 13:01:43;;;;;;;;;;;15.50;87.10;;;;;;4989003;28;19933;-67
2022/04/27 13:04:10;;;;;;;;;;;15.50;87.60;;;;;;4982504;28;20726;-67
2022/04/27 13:06:37;;;;;;;;;;;15.60;87.80;;;;;;4989574;28;19933;-67
2022/04/27 13:11:56;;;;;;;;;;;15.60;87.70;;;;;;4986428;28;19933;-67
2022/04/27 13:14:25;;;;;;;;;;;15.60;87.30;;;;;;4985456;28;19978;-67
2022/04/27 13:16:52;;;;;;;;;;;15.60;87.30;;;;;;4981908;28;22465;-67
2022/04/27 13:19:19;;;;;;;;;;;15.60;87.40;;;;;;4995607;28;19932;-67
2022/04/27 13:21:47;;;;;;;;;;;15.50;87.40;;;;;;4986472;28;19933;-68
2022/04/27 13:24:15;;;;;;;;;;;15.40;88.10;;;;;;4990981;28;21198;-68
2022/04/27 13:27:00;;;;;;;;;;;15.40;88.30;;;;;;5005232;28;19933;-67
2022/04/27 13:29:27;;;;;;;;;;;15.30;88.10;;;;;;4984711;28;22379;-68
2022/04/27 13:31:54;;;;;;;;;;;15.30;88.40;;;;;;4987846;28;19933;-68
2022/04/27 13:34:22;;;;;;;;;;;15.20;91.60;;;;;;4995982;28;22408;-67
2022/04/27 13:36:49;;;;;;;;;;;15.10;92.70;;;;;;4990381;28;20019;-67
2022/04/27 13:39:17;;;;;;;;;;;14.90;93.30;;;;;;4980241;28;20158;-68
2022/04/27 13:41:44;;;;;;;;;;;14.90;93.80;;;;;;4988871;28;19933;-68
2022/04/27 13:44:11;;;;;;;;;;;14.80;94.50;;;;;;4987756;28;20687;-68
2022/04/27 13:46:38;;;;;;;;;;;14.80;95.30;;;;;;4985830;28;19933;-67
2022/04/27 13:49:05;;;;;;;;;;;14.80;95.90;;;;;;4989365;28;19963;-68
2022/04/27 13:51:32;;;;;;;;;;;14.60;97.20;;;;;;4988564;28;20087;-68
2022/04/27 13:53:59;;;;;;;;;;;14.60;98.10;;;;;;4994976;28;19933;-67
2022/04/27 13:56:26;;;;;;;;;;;14.50;99.10;;;;;;4988231;28;19940;-68
2022/04/27 13:58:54;;;;;;;;;;;14.50;99.20;;;;;;4986237;28;19948;-68
2022/04/27 14:01:20;;;;;;;;;;;14.40;99.90;;;;;;4989577;28;19941;-68
2022/04/27 14:03:48;;;;;;;;;;;14.40;99.90;;;;;;4989078;28;19933;-68
2022/04/27 14:06:18;;;;;;;;;;;14.20;99.90;;;;;;4988756;28;22346;-68
2022/04/27 14:08:45;;;;;;;;;;;14.00;99.90;;;;;;4988206;28;19933;-67
2022/04/27 14:13:58;;;;;;;;;;;14.00;99.90;;;;;;4990064;28;19932;-67
2022/04/27 14:19:10;;;;;;;;;;;14.10;99.90;;;;;;4989120;28;19933;-67
2022/04/27 14:21:38;;;;;;;;;;;14.00;99.90;;;;;;4988175;28;19933;-67
2022/04/27 14:24:05;;;;;;;;;;;13.90;99.90;;;;;;4989384;28;19944;-67
2022/04/27 14:26:33;;;;;;;;;;;13.80;99.90;;;;;;4988760;28;19933;-67
2022/04/27 14:28:59;;;;;;;;;;;13.80;99.90;;;;;;4987788;28;19956;-67
2022/04/27 14:31:27;;;;;;;;;;;13.60;99.90;;;;;;4984206;28;19983;-67
2022/04/27 14:33:55;;;;;;;;;;;13.70;99.90;;;;;;4970374;28;20040;-68
2022/04/27 14:36:22;;;;;;;;;;;13.60;99.90;;;;;;4981997;28;22349;-67
2022/04/27 14:38:49;;;;;;;;;;;13.50;99.90;;;;;;4984570;28;19933;-66
2022/04/27 14:41:20;;;;;;;;;;;13.40;99.90;;;;;;4984826;28;19939;-66
2022/04/27 14:43:47;;;;;;;;;;;13.30;99.90;;;;;;4997945;28;19999;-66
2022/04/27 14:46:14;;;;;;;;;;;13.30;99.90;;;;;;4988416;28;20990;-66
2022/04/27 14:48:42;;;;;;;;;;;13.20;99.90;;;;;;4988142;28;20565;-67
2022/04/27 14:51:10;;;;;;;;;;;13.10;99.90;;;;;;4986498;28;19944;-66
2022/04/27 14:53:37;;;;;;;;;;;12.90;99.90;;;;;;4990073;28;22201;-66
2022/04/27 14:56:07;;;;;;;;;;;12.80;99.90;;;;;;4991797;28;21129;-67
2022/04/27 14:58:36;;;;;;;;;;;12.80;99.90;;;;;;4988027;28;20786;-66
2022/04/27 15:01:03;;;;;;;;;;;12.70;99.90;;;;;;4989733;28;19932;-67
2022/04/27 15:03:30;;;;;;;;;;;12.60;99.90;;;;;;4989617;28;19940;-66
2022/04/27 15:05:57;;;;;;;;;;;12.60;99.90;;;;;;4991032;28;19940;-67
2022/04/27 15:08:24;;;;;;;;;;;12.70;99.90;;;;;;4990636;28;19937;-66